Time;durP1;ratioP1;P1;durP2;ratioP2;P2;SDS_P1;SDS_P2;PMS_P1;PMS_P2;Temp;Humidity;BMP_temperature;BMP_pressure;BME280_temperature;BME280_humidity;BME280_pressure;Samples;Min_cycle;Max_cycle;Signal;HPM_P1;HPM_P2
2022/03/03 00:00:20;;;;;;;4.50;4.10;;;16.70;45.40;17.60;101220.00;;;;5035312;28;20226;-44
2022/03/03 00:02:46;;;;;;;4.63;4.23;;;16.70;45.50;17.60;101223.00;;;;5032479;28;20167;-42
2022/03/03 00:05:12;;;;;;;4.73;4.33;;;16.70;45.50;17.60;101217.00;;;;5045620;28;20508;-44
2022/03/03 00:07:37;;;;;;;5.00;3.90;;;16.60;45.60;17.50;101223.00;;;;5030154;28;20163;-44
2022/03/03 00:10:04;;;;;;;4.43;4.03;;;16.60;45.60;17.50;101223.00;;;;5030273;28;20678;-44
2022/03/03 00:12:29;;;;;;;4.67;4.17;;;16.60;45.70;17.50;101220.00;;;;5029183;28;20214;-44
2022/03/03 00:14:55;;;;;;;4.30;4.00;;;16.50;45.70;17.50;101220.00;;;;5029867;28;20218;-43
2022/03/03 00:17:21;;;;;;;4.50;4.10;;;16.50;45.80;17.50;101224.00;;;;5029943;28;20168;-44
2022/03/03 00:19:46;;;;;;;4.50;4.10;;;16.50;45.70;17.40;101217.00;;;;5030127;28;20170;-44
2022/03/03 00:22:12;;;;;;;4.17;3.77;;;16.50;45.70;17.20;101222.00;;;;5030064;28;20668;-43
2022/03/03 00:24:38;;;;;;;4.20;3.80;;;16.40;45.80;17.40;101219.00;;;;5029449;28;20194;-45
2022/03/03 00:27:05;;;;;;;4.10;3.80;;;16.40;45.90;17.40;101214.00;;;;5030338;28;20177;-46
2022/03/03 00:29:31;;;;;;;4.40;4.00;;;16.40;46.00;17.30;101210.00;;;;5030382;28;20179;-44
2022/03/03 00:31:57;;;;;;;4.17;3.77;;;16.40;45.80;17.30;101207.00;;;;5029644;28;20847;-44
2022/03/03 00:34:22;;;;;;;4.17;3.80;;;16.30;45.90;17.30;101212.00;;;;5029407;28;20191;-44
2022/03/03 00:36:48;;;;;;;4.27;3.90;;;16.30;45.90;17.30;101217.00;;;;5030230;28;20215;-43
2022/03/03 00:39:14;;;;;;;4.20;3.90;;;16.30;46.00;17.20;101208.00;;;;5030451;28;20175;-45
2022/03/03 00:41:40;;;;;;;4.40;4.00;;;16.30;45.90;17.20;101208.00;;;;5029900;28;20202;-44
2022/03/03 00:44:06;;;;;;;3.90;3.60;;;16.30;46.10;17.20;101206.00;;;;5029649;28;20195;-44
2022/03/03 00:46:35;;;;;;;4.17;3.80;;;16.20;46.20;17.20;101199.00;;;;5029244;28;20704;-43
2022/03/03 00:49:01;;;;;;;3.80;3.50;;;16.20;46.10;17.10;101202.00;;;;5029364;28;20167;-43
2022/03/03 00:51:27;;;;;;;4.13;3.77;;;16.20;46.10;17.10;101199.00;;;;5029557;28;20175;-44
2022/03/03 00:53:53;;;;;;;4.00;3.70;;;16.10;46.20;17.10;101200.00;;;;5029216;28;20191;-44
2022/03/03 00:56:18;;;;;;;4.10;3.80;;;16.20;46.40;17.10;101188.00;;;;5029683;28;20671;-43
2022/03/03 00:58:45;;;;;;;4.30;4.00;;;16.10;46.20;17.00;101201.00;;;;5033606;28;20183;-43
2022/03/03 01:01:10;;;;;;;5.20;3.90;;;16.00;46.20;17.00;101190.00;;;;5029143;28;20194;-44
2022/03/03 01:03:36;;;;;;;4.10;3.80;;;16.10;46.30;17.00;101201.00;;;;5029194;28;20195;-44
2022/03/03 01:06:02;;;;;;;4.17;3.87;;;16.00;46.40;17.00;101183.00;;;;5029580;28;20170;-44
2022/03/03 01:08:28;;;;;;;3.87;3.57;;;16.00;46.20;17.00;101190.00;;;;5029785;28;20167;-43
2022/03/03 01:10:54;;;;;;;4.03;3.73;;;16.00;46.30;16.90;101197.00;;;;5039143;28;20175;-43
2022/03/03 01:13:21;;;;;;;4.00;3.70;;;16.00;46.30;16.90;101197.00;;;;5028762;28;20198;-44
2022/03/03 01:15:47;;;;;;;3.90;3.60;;;16.00;46.30;16.90;101190.00;;;;5029605;28;20652;-45
2022/03/03 01:18:13;;;;;;;4.40;4.00;;;16.00;46.40;16.90;101197.00;;;;5029330;28;20181;-44
2022/03/03 01:20:38;;;;;;;4.23;3.90;;;15.90;46.40;16.90;101190.00;;;;5029074;28;20264;-43
2022/03/03 01:23:04;;;;;;;4.40;4.00;;;15.90;46.40;16.80;101205.00;;;;5028898;28;20191;-43
2022/03/03 01:25:30;;;;;;;4.10;3.70;;;15.90;46.60;16.80;101199.00;;;;5028953;28;20182;-43
2022/03/03 01:27:55;;;;;;;4.17;3.80;;;15.90;46.60;16.80;101199.00;;;;5029494;28;20544;-46
2022/03/03 01:30:21;;;;;;;4.07;3.77;;;15.80;46.70;16.80;101197.00;;;;5029429;28;20182;-43
2022/03/03 01:32:47;;;;;;;3.80;3.50;;;15.80;46.70;16.70;101194.00;;;;5029350;28;20207;-42
2022/03/03 01:35:13;;;;;;;4.00;3.70;;;15.80;46.70;16.70;101187.00;;;;5029170;28;20700;-45
2022/03/03 01:37:38;;;;;;;4.30;3.90;;;15.70;46.70;16.70;101182.00;;;;5028900;28;20381;-44
2022/03/03 01:40:05;;;;;;;4.13;3.80;;;15.80;46.70;16.70;101174.00;;;;5029447;28;20222;-44
2022/03/03 01:42:31;;;;;;;3.67;3.37;;;15.80;46.80;16.70;101164.00;;;;5028555;28;20265;-44
2022/03/03 01:44:57;;;;;;;4.13;3.83;;;15.70;46.70;16.70;101175.00;;;;5029354;28;20666;-43
2022/03/03 01:47:25;;;;;;;3.80;3.50;;;15.70;46.70;16.60;101176.00;;;;5029306;28;20218;-42
2022/03/03 01:49:52;;;;;;;3.87;3.57;;;15.70;46.70;16.60;101168.00;;;;5030291;28;20175;-44
2022/03/03 01:52:18;;;;;;;3.80;3.50;;;15.60;46.80;16.60;101177.00;;;;5031035;28;20167;-46
2022/03/03 01:54:44;;;;;;;3.80;3.50;;;15.60;47.00;16.60;101178.00;;;;5032318;28;20253;-44
2022/03/03 01:57:10;;;;;;;3.80;3.50;;;15.70;47.00;16.60;101173.00;;;;5033460;28;20183;-44
2022/03/03 01:59:36;;;;;;;3.73;3.43;;;15.70;46.70;16.60;101162.00;;;;5033391;28;20171;-44
2022/03/03 02:02:03;;;;;;;3.80;3.50;;;15.70;46.70;16.60;101166.00;;;;5032020;28;20202;-43
2022/03/03 02:04:28;;;;;;;4.00;3.70;;;15.70;46.70;16.60;101166.00;;;;5034486;28;20199;-47
2022/03/03 02:06:54;;;;;;;4.20;3.80;;;15.80;46.80;16.60;101173.00;;;;5038031;28;20167;-43
2022/03/03 02:09:20;;;;;;;3.70;3.40;;;15.80;46.80;16.60;101166.00;;;;5032296;28;20178;-45
2022/03/03 02:11:48;;;;;;;4.10;3.80;;;15.70;46.70;16.60;101168.00;;;;5032394;28;20167;-43
2022/03/03 02:14:14;;;;;;;4.00;3.70;;;15.70;46.70;16.60;101164.00;;;;5032944;28;20194;-43
2022/03/03 02:16:40;;;;;;;3.80;3.50;;;15.70;46.70;16.70;101161.00;;;;5032782;28;20743;-43
2022/03/03 02:19:06;;;;;;;3.93;3.63;;;15.80;46.80;16.70;101160.00;;;;5032688;28;20171;-44
2022/03/03 02:21:32;;;;;;;3.67;3.37;;;15.70;46.70;16.70;101160.00;;;;5031919;28;20824;-44
2022/03/03 02:23:58;;;;;;;4.20;3.80;;;15.70;46.70;16.70;101161.00;;;;5037161;28;20277;-43
2022/03/03 02:26:24;;;;;;;3.90;3.60;;;15.70;46.70;16.60;101153.00;;;;5032485;28;20220;-44
2022/03/03 02:28:51;;;;;;;4.10;3.80;;;15.70;46.70;16.60;101149.00;;;;5033686;28;20178;-44
2022/03/03 02:31:17;;;;;;;3.93;3.60;;;15.70;46.70;16.60;101144.00;;;;5030991;28;20171;-45
2022/03/03 02:33:43;;;;;;;3.60;3.30;;;15.70;46.70;16.60;101144.00;;;;5032127;28;20841;-45
2022/03/03 02:36:29;;;;;;;4.07;3.70;;;15.70;46.70;16.60;101145.00;;;;5031960;28;20183;-43
2022/03/03 02:38:59;;;;;;;3.80;3.50;;;15.70;46.70;16.50;101144.00;;;;5032187;28;20620;-43
2022/03/03 02:41:26;;;;;;;3.60;3.30;;;15.60;46.60;16.50;101136.00;;;;5031423;28;20636;-44
2022/03/03 02:43:52;;;;;;;3.60;3.30;;;15.60;46.60;16.50;101131.00;;;;5032293;28;20187;-43
2022/03/03 02:46:18;;;;;;;4.07;3.73;;;15.60;46.60;16.50;101141.00;;;;5031867;28;20528;-43
2022/03/03 02:48:43;;;;;;;3.90;3.60;;;15.60;46.60;16.50;101139.00;;;;5031190;28;20938;-44
2022/03/03 02:51:09;;;;;;;3.70;3.40;;;15.60;46.60;16.50;101122.00;;;;5031893;28;20175;-44
2022/03/03 02:53:35;;;;;;;3.80;3.50;;;15.50;46.60;16.40;101128.00;;;;5033160;28;20198;-44
2022/03/03 02:56:02;;;;;;;3.60;3.30;;;15.60;46.60;16.40;101114.00;;;;5031406;28;20261;-44
2022/03/03 02:58:28;;;;;;;3.77;3.47;;;15.50;46.60;16.40;101115.00;;;;5031128;28;20184;-44
2022/03/03 03:00:54;;;;;;;3.90;3.60;;;15.50;46.60;16.20;101116.00;;;;5029713;28;20187;-44
2022/03/03 03:03:20;;;;;;;3.80;3.43;;;15.50;46.60;16.40;101125.00;;;;5030160;28;20660;-44
2022/03/03 03:05:46;;;;;;;4.10;3.70;;;15.50;46.60;16.30;101118.00;;;;5029504;28;20178;-44
2022/03/03 03:08:12;;;;;;;4.17;3.77;;;15.40;46.70;16.30;101111.00;;;;5031100;28;20174;-44
2022/03/03 03:10:38;;;;;;;3.40;3.20;;;15.50;46.80;16.30;101113.00;;;;5030831;28;20175;-44
2022/03/03 03:13:04;;;;;;;3.87;3.57;;;15.40;46.70;16.30;101115.00;;;;5030487;28;20193;-43
2022/03/03 03:15:30;;;;;;;3.90;3.60;;;15.40;46.60;16.30;101117.00;;;;5031133;28;20197;-43
2022/03/03 03:17:56;;;;;;;3.73;3.43;;;15.40;46.70;16.30;101112.00;;;;5030510;28;20637;-45
2022/03/03 03:20:22;;;;;;;3.80;3.50;;;15.40;46.70;16.20;101118.00;;;;5029470;28;20667;-43
2022/03/03 03:22:49;;;;;;;3.73;3.43;;;15.40;46.80;16.20;101115.00;;;;5030365;28;20179;-42
2022/03/03 03:25:15;;;;;;;3.90;3.60;;;15.40;46.90;16.20;101112.00;;;;5031067;28;20194;-43
2022/03/03 03:27:42;;;;;;;3.50;3.20;;;15.30;46.80;16.20;101118.00;;;;5031040;28;20171;-44
2022/03/03 03:30:10;;;;;;;3.77;3.47;;;15.30;46.90;16.20;101106.00;;;;5030403;28;20163;-45
2022/03/03 03:32:36;;;;;;;3.87;3.50;;;15.30;46.90;16.10;101105.00;;;;5032316;28;20174;-43
2022/03/03 03:35:04;;;;;;;3.90;3.60;;;15.30;46.90;16.10;101110.00;;;;5033192;28;20262;-43
2022/03/03 03:37:29;;;;;;;3.70;3.40;;;15.30;46.90;16.10;101109.00;;;;5030418;28;20167;-43
2022/03/03 03:39:56;;;;;;;4.13;3.73;;;15.20;46.80;16.10;101102.00;;;;5030427;28;20178;-44
2022/03/03 03:42:21;;;;;;;3.80;3.50;;;15.30;46.80;16.10;101094.00;;;;5030127;28;20198;-44
2022/03/03 03:44:47;;;;;;;3.70;3.40;;;15.20;46.80;16.10;101101.00;;;;5030013;28;20656;-45
2022/03/03 03:47:13;;;;;;;3.90;3.60;;;15.20;46.80;16.00;101103.00;;;;5030298;28;20176;-44
2022/03/03 03:49:39;;;;;;;3.87;3.57;;;15.20;46.90;16.00;101090.00;;;;5030461;28;20179;-44
2022/03/03 03:52:05;;;;;;;3.83;3.53;;;15.10;46.80;16.00;101093.00;;;;5035304;28;20201;-43
2022/03/03 03:54:31;;;;;;;3.50;3.20;;;15.10;46.80;16.00;101100.00;;;;5031194;28;20603;-43
2022/03/03 03:56:56;;;;;;;3.93;3.63;;;15.10;46.90;16.00;101100.00;;;;5028750;28;20270;-44
2022/03/03 03:59:22;;;;;;;3.83;3.53;;;15.00;46.80;16.00;101091.00;;;;5029948;28;20750;-44
2022/03/03 04:01:48;;;;;;;3.77;3.47;;;15.00;46.90;15.90;101092.00;;;;5029844;28;20210;-46
2022/03/03 04:04:14;;;;;;;3.67;3.37;;;15.00;47.00;15.90;101038.00;;;;5029790;28;20260;-44
2022/03/03 04:06:40;;;;;;;3.30;3.10;;;15.00;47.10;15.40;101085.00;;;;5030569;28;20167;-43
2022/03/03 04:09:05;;;;;;;3.70;3.40;;;15.00;47.20;15.90;101082.00;;;;5030041;28;20175;-43
2022/03/03 04:11:31;;;;;;;3.93;3.63;;;15.00;47.20;15.80;101084.00;;;;5029772;28;20206;-43
2022/03/03 04:13:57;;;;;;;3.83;3.53;;;14.90;47.20;15.90;101081.00;;;;5028977;28;20222;-43
2022/03/03 04:16:24;;;;;;;3.70;3.40;;;14.90;47.10;15.90;101094.00;;;;5029520;28;20171;-43
2022/03/03 04:18:50;;;;;;;3.67;3.37;;;14.90;47.10;15.90;101085.00;;;;5029671;28;20269;-43
2022/03/03 04:21:15;;;;;;;3.83;3.53;;;14.90;47.10;15.90;101081.00;;;;5029834;28;20199;-44
2022/03/03 04:23:41;;;;;;;3.80;3.50;;;14.90;47.10;15.90;101080.00;;;;5029085;28;20663;-44
2022/03/03 04:26:07;;;;;;;3.83;3.53;;;14.90;47.10;15.90;101085.00;;;;5029847;28;20736;-43
2022/03/03 04:28:33;;;;;;;3.70;3.40;;;14.90;47.10;15.90;101076.00;;;;5029520;28;20205;-49
2022/03/03 04:30:58;;;;;;;3.60;3.30;;;14.80;47.30;15.80;101077.00;;;;5029283;28;20178;-42
2022/03/03 04:33:24;;;;;;;3.70;3.40;;;14.80;47.50;15.80;101068.00;;;;5031405;28;20210;-44
2022/03/03 04:35:50;;;;;;;3.63;3.33;;;14.80;47.40;15.90;101081.00;;;;5030218;28;20538;-44
2022/03/03 04:38:15;;;;;;;7.00;3.77;;;14.80;47.30;15.80;101080.00;;;;5029437;28;20179;-44
2022/03/03 04:40:41;;;;;;;5.60;3.60;;;14.80;47.40;15.80;101077.00;;;;5029148;28;20234;-43
2022/03/03 04:43:07;;;;;;;5.03;3.33;;;14.80;47.20;15.80;101074.00;;;;5028728;28;20664;-44
2022/03/03 04:45:32;;;;;;;5.03;3.40;;;14.70;47.40;15.80;101071.00;;;;5029299;28;20170;-42
2022/03/03 04:47:58;;;;;;;4.70;3.80;;;14.70;47.30;15.70;101060.00;;;;5029476;28;20178;-44
2022/03/03 04:50:24;;;;;;;3.63;3.33;;;14.70;47.30;15.80;101060.00;;;;5028386;28;20648;-43
2022/03/03 04:52:50;;;;;;;3.57;3.10;;;14.70;47.30;15.70;101053.00;;;;5029361;28;20191;-43
2022/03/03 04:55:15;;;;;;;4.80;3.70;;;14.70;47.30;15.70;101051.00;;;;5031631;28;20823;-43
2022/03/03 04:57:41;;;;;;;3.70;3.20;;;14.70;47.30;15.70;101056.00;;;;5029081;28;20194;-43
2022/03/03 05:00:07;;;;;;;4.23;3.50;;;14.60;47.30;15.70;101052.00;;;;5029212;28;20328;-44
2022/03/03 05:02:33;;;;;;;3.50;3.20;;;14.60;47.30;15.70;101051.00;;;;5028757;28;20171;-45
2022/03/03 05:04:59;;;;;;;3.80;3.30;;;14.60;47.20;15.70;101041.00;;;;5020514;28;20541;-45
2022/03/03 05:07:25;;;;;;;4.30;3.27;;;14.60;47.20;15.70;101033.00;;;;5009582;28;20182;-44
2022/03/03 05:09:50;;;;;;;4.13;3.80;;;14.60;47.20;15.70;101027.00;;;;5012620;28;20195;-43
2022/03/03 05:12:16;;;;;;;3.80;3.30;;;14.50;47.10;15.70;101033.00;;;;5010512;28;20709;-44
2022/03/03 05:14:42;;;;;;;3.77;3.30;;;14.60;47.10;15.60;101019.00;;;;5009308;28;20191;-46
2022/03/03 05:17:07;;;;;;;3.70;3.40;;;14.50;47.00;15.60;101038.00;;;;5024349;28;20183;-43
2022/03/03 05:19:33;;;;;;;4.20;3.80;;;14.50;46.90;15.60;101034.00;;;;5008931;28;20175;-45
2022/03/03 05:21:59;;;;;;;4.50;4.00;;;14.50;47.00;15.50;101034.00;;;;5008860;28;20194;-44
2022/03/03 05:24:25;;;;;;;5.13;3.73;;;14.50;47.00;15.50;101025.00;;;;5008232;28;20184;-43
2022/03/03 05:26:50;;;;;;;3.90;3.60;;;14.40;46.80;15.50;101024.00;;;;5009376;28;20689;-48
2022/03/03 05:29:16;;;;;;;4.50;3.73;;;14.50;46.80;15.50;101027.00;;;;5011264;28;20193;-44
2022/03/03 05:31:42;;;;;;;4.70;4.30;;;14.40;46.50;15.50;101023.00;;;;5012898;28;20226;-44
2022/03/03 05:34:08;;;;;;;4.97;4.57;;;14.40;46.50;15.40;101025.00;;;;5012606;28;20282;-43
2022/03/03 05:36:37;;;;;;;4.53;4.13;;;14.40;46.60;15.40;101023.00;;;;5015191;28;20180;-43
2022/03/03 05:39:02;;;;;;;5.10;4.30;;;14.30;46.20;15.40;101024.00;;;;5027713;28;20176;-43
2022/03/03 05:41:28;;;;;;;5.20;4.70;;;14.30;46.20;15.40;101019.00;;;;5012879;28;20198;-44
2022/03/03 05:43:54;;;;;;;4.80;4.30;;;14.30;46.10;15.40;101035.00;;;;5011884;28;20362;-44
2022/03/03 05:46:19;;;;;;;4.93;4.43;;;14.30;46.10;15.40;101028.00;;;;5014969;28;20179;-44
2022/03/03 05:48:47;;;;;;;4.63;4.20;;;14.30;46.20;15.40;101021.00;;;;5030458;28;20191;-44
2022/03/03 05:51:13;;;;;;;4.60;4.20;;;14.30;46.20;15.40;101026.00;;;;5027083;28;20199;-44
2022/03/03 05:53:38;;;;;;;5.13;4.10;;;14.30;46.10;15.30;100969.00;;;;5011092;28;20206;-44
2022/03/03 05:56:09;;;;;;;4.33;3.93;;;14.30;46.20;15.30;101025.00;;;;5013175;28;20179;-44
2022/03/03 05:58:44;;;;;;;5.10;4.40;;;14.20;46.00;15.30;101021.00;;;;5011120;28;20211;-43
2022/03/03 06:01:11;;;;;;;4.70;4.30;;;14.20;46.00;15.30;101021.00;;;;5012195;28;20281;-43
2022/03/03 06:03:37;;;;;;;4.33;3.93;;;14.20;46.00;15.30;101029.00;;;;5009963;28;20778;-44
2022/03/03 06:06:15;;;;;;;4.30;4.00;;;14.20;46.10;15.30;101025.00;;;;5013190;28;20195;-44
2022/03/03 06:08:51;;;;;;;4.60;4.23;;;14.20;46.00;15.20;101006.00;;;;5019696;28;20216;-43
2022/03/03 06:11:17;;;;;;;4.43;4.03;;;14.20;46.10;15.20;101021.00;;;;5029964;28;20762;-43
2022/03/03 06:13:47;;;;;;;4.43;4.03;;;14.20;46.00;15.20;101015.00;;;;4996491;28;20244;-44
2022/03/03 06:16:19;;;;;;;4.40;4.00;;;14.10;46.00;15.20;101026.00;;;;5031272;28;20174;-44
2022/03/03 06:18:49;;;;;;;4.40;4.00;;;14.10;45.90;15.20;101017.00;;;;5030926;28;20202;-44
2022/03/03 06:21:15;;;;;;;4.30;3.90;;;14.10;46.00;15.20;101017.00;;;;5032394;28;20246;-44
2022/03/03 06:23:41;;;;;;;4.17;3.87;;;14.10;46.60;15.20;101021.00;;;;5031292;28;20283;-42
2022/03/03 06:26:08;;;;;;;4.53;4.13;;;14.10;46.00;15.10;101016.00;;;;5032558;28;20249;-43
2022/03/03 06:28:34;;;;;;;4.20;3.83;;;14.10;46.00;15.10;101022.00;;;;5030659;28;20183;-44
2022/03/03 06:31:00;;;;;;;4.37;3.97;;;14.00;45.90;15.10;101033.00;;;;5029666;28;20175;-44
2022/03/03 06:33:25;;;;;;;4.10;3.80;;;14.00;46.10;15.10;101029.00;;;;5035264;28;20218;-43
2022/03/03 06:35:52;;;;;;;3.90;3.60;;;14.00;45.80;15.10;101028.00;;;;5033092;28;20271;-43
2022/03/03 06:38:18;;;;;;;4.30;3.90;;;14.00;45.90;15.10;100980.00;;;;5030747;28;20206;-43
2022/03/03 06:40:44;;;;;;;4.00;3.70;;;14.00;45.80;15.10;101024.00;;;;5031737;28;20730;-44
2022/03/03 06:43:09;;;;;;;4.20;3.90;;;14.00;46.60;15.00;101034.00;;;;5029780;28;20231;-42
2022/03/03 06:45:35;;;;;;;4.20;3.80;;;14.00;46.00;15.00;101032.00;;;;5030276;28;20163;-44
2022/03/03 06:48:04;;;;;;;3.90;3.60;;;13.90;45.80;15.00;101031.00;;;;5030064;28;20179;-45
2022/03/03 06:50:30;;;;;;;4.03;3.63;;;13.90;45.80;15.00;101021.00;;;;5029943;28;20175;-45
2022/03/03 06:52:56;;;;;;;4.03;3.67;;;13.90;45.90;15.00;101019.00;;;;5028200;28;20760;-44
2022/03/03 06:55:24;;;;;;;4.27;3.87;;;13.90;45.90;15.00;101036.00;;;;5013281;28;20171;-43
2022/03/03 06:57:52;;;;;;;3.90;3.60;;;13.90;45.90;15.00;101040.00;;;;5033313;28;20202;-44
2022/03/03 07:00:19;;;;;;;3.90;3.60;;;13.90;45.90;14.90;101039.00;;;;5030765;28;20690;-44
2022/03/03 07:02:47;;;;;;;4.13;3.80;;;13.90;45.90;14.90;101038.00;;;;5012357;28;20161;-44
2022/03/03 07:05:16;;;;;;;4.13;3.80;;;13.90;45.80;14.90;101043.00;;;;5030992;28;20171;-44
2022/03/03 07:07:44;;;;;;;4.30;3.90;;;13.80;45.70;14.90;101035.00;;;;5034010;28;20225;-43
2022/03/03 07:10:13;;;;;;;4.00;3.70;;;13.80;45.80;14.90;101027.00;;;;5032130;28;20183;-47
2022/03/03 07:12:40;;;;;;;3.97;3.67;;;13.80;45.80;14.90;101029.00;;;;5033001;28;20430;-46
2022/03/03 07:15:07;;;;;;;3.87;3.57;;;13.80;45.80;14.90;101035.00;;;;5030393;28;20173;-43
2022/03/03 07:17:51;;;;;;;3.70;3.40;;;13.80;45.70;14.60;101027.00;;;;5031488;28;20175;-43
2022/03/03 07:20:46;;;;;;;3.90;3.60;;;13.80;45.80;14.80;101031.00;;;;5029813;28;20764;-44
2022/03/03 07:23:53;;;;;;;3.67;3.37;;;13.80;45.90;14.80;101040.00;;;;5030390;28;20187;-43
2022/03/03 07:26:19;;;;;;;4.10;3.80;;;13.70;45.70;14.80;101042.00;;;;5016907;28;20182;-43
2022/03/03 07:28:52;;;;;;;3.83;3.53;;;13.70;45.70;14.80;101029.00;;;;5013483;28;20166;-42
2022/03/03 07:31:18;;;;;;;3.60;3.30;;;13.70;45.60;14.80;101028.00;;;;4997836;28;20782;-44
2022/03/03 07:33:50;;;;;;;3.63;3.33;;;13.70;46.30;14.80;101041.00;;;;5029525;28;20206;-43
2022/03/03 07:36:25;;;;;;;4.00;3.70;;;13.70;45.60;14.80;101048.00;;;;5030858;28;20178;-45
2022/03/03 07:39:03;;;;;;;4.07;3.77;;;13.70;45.70;14.80;101054.00;;;;5028229;28;20201;-44
2022/03/03 07:41:28;;;;;;;3.93;3.60;;;13.70;45.80;14.70;101055.00;;;;5029776;28;20198;-45
2022/03/03 07:43:55;;;;;;;3.70;3.40;;;13.70;45.70;14.70;101061.00;;;;5027249;28;20214;-46
2022/03/03 07:46:22;;;;;;;3.93;3.63;;;13.70;45.70;14.70;101058.00;;;;5029667;28;20201;-43
2022/03/03 07:48:48;;;;;;;3.83;3.53;;;13.70;45.80;14.70;101058.00;;;;5028988;28;20250;-42
2022/03/03 07:51:13;;;;;;;3.90;3.60;;;13.60;45.60;14.70;101068.00;;;;5028127;28;20639;-43
2022/03/03 07:53:39;;;;;;;3.90;3.60;;;13.60;45.60;14.70;101060.00;;;;5027764;28;20322;-44
2022/03/03 07:56:05;;;;;;;3.90;3.60;;;13.60;45.60;14.70;101055.00;;;;5031675;28;20186;-45
2022/03/03 07:58:41;;;;;;;4.00;3.70;;;13.60;45.60;14.50;101052.00;;;;5031381;28;20194;-44
2022/03/03 08:01:07;;;;;;;4.07;3.77;;;13.60;45.50;14.70;101050.00;;;;5028496;28;20246;-44
2022/03/03 08:03:33;;;;;;;4.07;3.67;;;13.60;45.50;14.70;101063.00;;;;5026560;28;20191;-44
2022/03/03 08:05:58;;;;;;;3.97;3.67;;;13.60;45.50;14.70;101068.00;;;;5029305;28;20170;-42
2022/03/03 08:08:29;;;;;;;4.00;3.70;;;13.60;45.60;14.70;101067.00;;;;5032242;28;20155;-43
2022/03/03 08:11:05;;;;;;;3.63;3.33;;;13.60;45.60;14.60;101072.00;;;;5029934;28;20636;-42
2022/03/03 08:13:31;;;;;;;4.07;3.77;;;13.60;45.50;14.60;101066.00;;;;5027800;28;20260;-44
2022/03/03 08:15:57;;;;;;;4.00;3.70;;;13.60;45.50;14.60;101065.00;;;;5029856;28;20171;-43
2022/03/03 08:18:32;;;;;;;4.07;3.77;;;13.60;45.50;14.60;101067.00;;;;5032367;28;20175;-43
2022/03/03 08:21:02;;;;;;;4.00;3.53;;;13.60;45.40;14.60;101069.00;;;;5030372;28;20199;-44
2022/03/03 08:23:28;;;;;;;4.10;3.70;;;13.60;45.50;14.60;101054.00;;;;5028170;28;20217;-43
2022/03/03 08:25:54;;;;;;;4.10;3.77;;;13.60;45.60;14.60;101066.00;;;;5028783;28;20763;-44
2022/03/03 08:28:23;;;;;;;4.87;3.80;;;13.60;45.50;14.60;101057.00;;;;5028462;28;20266;-45
2022/03/03 08:30:56;;;;;;;4.00;3.70;;;13.60;45.70;14.50;101054.00;;;;5028292;28;20739;-44
2022/03/03 08:33:52;;;;;;;4.27;3.77;;;13.60;45.90;14.60;101059.00;;;;5027095;28;20624;-43
2022/03/03 08:36:22;;;;;;;3.90;3.60;;;13.70;45.80;14.60;101060.00;;;;5026722;28;20262;-45
2022/03/03 08:38:51;;;;;;;4.30;3.90;;;14.00;45.70;14.70;101058.00;;;;5030220;28;20183;-43
2022/03/03 08:41:18;;;;;;;4.33;3.70;;;14.20;45.50;14.70;101065.00;;;;5028809;28;20899;-43
2022/03/03 08:43:44;;;;;;;6.87;3.83;;;14.30;45.50;14.80;101071.00;;;;5026364;28;20218;-45
2022/03/03 08:46:09;;;;;;;3.90;3.60;;;14.30;45.30;14.90;101059.00;;;;5028443;28;20842;-43
2022/03/03 08:48:35;;;;;;;4.00;3.60;;;14.40;45.30;14.90;101057.00;;;;5027230;28;20155;-44
2022/03/03 08:51:01;;;;;;;4.07;3.67;;;14.50;45.30;15.00;101062.00;;;;5028245;28;20167;-44
2022/03/03 08:53:27;;;;;;;4.47;4.07;;;14.60;45.30;15.10;101052.00;;;;5027825;28;20195;-44
2022/03/03 08:55:58;;;;;;;3.93;3.63;;;14.60;45.30;15.10;101057.00;;;;5029855;28;20182;-44
2022/03/03 08:58:24;;;;;;;5.00;3.70;;;14.70;45.90;15.20;101046.00;;;;5030017;28;20201;-44
2022/03/03 09:00:50;;;;;;;4.07;3.47;;;14.70;45.90;15.20;101055.00;;;;5028082;28;20786;-43
2022/03/03 09:03:21;;;;;;;4.27;3.63;;;14.80;46.00;15.20;101060.00;;;;5028415;28;20198;-42
2022/03/03 09:05:48;;;;;;;5.13;3.90;;;14.80;46.00;15.30;101058.00;;;;5031560;28;20175;-44
2022/03/03 09:08:13;;;;;;;5.70;4.03;;;14.80;46.00;15.30;101052.00;;;;5032576;28;20174;-44
2022/03/03 09:10:39;;;;;;;4.73;3.73;;;14.90;46.00;15.40;101062.00;;;;5032454;28;20178;-45
2022/03/03 09:13:05;;;;;;;5.10;3.60;;;14.90;47.70;15.40;101059.00;;;;5025992;28;20209;-44
2022/03/03 09:15:32;;;;;;;5.00;3.70;;;15.00;48.70;15.50;101071.00;;;;5031571;28;20167;-44
2022/03/03 09:17:58;;;;;;;5.03;3.67;;;15.00;49.10;15.50;101062.00;;;;5033059;28;20189;-44
2022/03/03 09:20:24;;;;;;;6.40;3.47;;;15.10;48.90;15.60;101056.00;;;;5030401;28;20222;-44
2022/03/03 09:22:49;;;;;;;4.80;3.73;;;15.20;48.60;15.60;101055.00;;;;5030390;28;20233;-43
2022/03/03 09:25:15;;;;;;;5.27;3.67;;;15.20;48.40;15.70;101057.00;;;;5031735;28;20190;-45
2022/03/03 09:27:41;;;;;;;4.30;3.67;;;15.20;48.60;15.70;101057.00;;;;5031539;28;20746;-45
2022/03/03 09:30:08;;;;;;;6.80;3.70;;;15.20;48.50;15.70;101049.00;;;;5025163;28;20172;-44
2022/03/03 09:32:34;;;;;;;4.93;3.90;;;15.20;48.90;15.70;101045.00;;;;5023367;28;20183;-44
2022/03/03 09:35:00;;;;;;;5.30;3.60;;;15.30;48.80;15.80;101035.00;;;;5031691;28;20189;-44
2022/03/03 09:37:33;;;;;;;5.17;3.90;;;15.30;48.80;15.80;100992.00;;;;5049375;28;20166;-45
2022/03/03 09:39:59;;;;;;;3.93;3.57;;;15.30;48.70;15.80;101031.00;;;;5055394;28;20162;-43
2022/03/03 09:42:31;;;;;;;4.70;4.00;;;15.30;48.80;15.90;101030.00;;;;5036738;28;20564;-44
2022/03/03 09:44:59;;;;;;;5.40;3.80;;;15.40;49.10;15.90;101026.00;;;;5032755;28;20639;-43
2022/03/03 09:47:25;;;;;;;4.33;3.80;;;15.40;49.40;15.90;101014.00;;;;5047414;28;20209;-43
2022/03/03 09:49:50;;;;;;;4.40;3.70;;;15.30;49.40;15.90;101012.00;;;;5031673;28;20174;-43
2022/03/03 09:52:22;;;;;;;4.47;3.70;;;15.40;49.50;15.90;101024.00;;;;5030994;28;20241;-44
2022/03/03 09:54:51;;;;;;;4.93;3.70;;;15.30;49.30;15.90;101024.00;;;;5032112;28;20227;-46
2022/03/03 09:57:17;;;;;;;4.47;3.40;;;15.30;49.20;15.90;101029.00;;;;5031121;28;20579;-46
2022/03/03 09:59:44;;;;;;;5.13;3.70;;;15.30;49.10;15.90;101026.00;;;;5030696;28;20175;-44
2022/03/03 10:02:09;;;;;;;5.17;3.33;;;15.30;49.10;15.90;101018.00;;;;5030634;28;20314;-44
2022/03/03 10:04:35;;;;;;;4.97;3.60;;;15.30;49.10;15.90;101028.00;;;;5030919;28;20741;-44
2022/03/03 10:07:05;;;;;;;4.63;3.63;;;15.30;49.00;15.90;101023.00;;;;5032971;28;20647;-45
2022/03/03 10:09:32;;;;;;;4.47;3.60;;;15.30;49.00;15.90;101019.00;;;;5030897;28;20182;-43
2022/03/03 10:12:02;;;;;;;3.80;3.50;;;15.30;49.00;15.90;101031.00;;;;5031036;28;20212;-44
2022/03/03 10:14:36;;;;;;;3.77;3.33;;;15.20;48.90;16.00;101014.00;;;;5030198;28;20198;-44
2022/03/03 10:17:05;;;;;;;3.80;3.37;;;15.30;49.00;15.90;101030.00;;;;5030715;28;20202;-44
2022/03/03 10:19:32;;;;;;;5.03;3.43;;;15.30;49.00;15.90;101027.00;;;;5031310;28;20306;-44
2022/03/03 10:21:57;;;;;;;3.83;3.33;;;15.20;49.00;15.90;101018.00;;;;5013368;28;20214;-44
2022/03/03 10:24:29;;;;;;;3.83;3.53;;;15.20;48.90;15.90;101015.00;;;;5032624;28;20190;-44
2022/03/03 10:27:00;;;;;;;3.83;3.53;;;15.20;48.90;15.90;101017.00;;;;5031476;28;20187;-44
2022/03/03 10:29:26;;;;;;;3.63;3.33;;;15.20;49.00;15.90;101022.00;;;;5031235;28;20210;-44
2022/03/03 10:31:54;;;;;;;3.40;3.10;;;15.20;48.90;15.90;101015.00;;;;5031201;28;20171;-44
2022/03/03 10:34:34;;;;;;;4.23;3.50;;;15.20;48.90;16.00;101017.00;;;;5031330;28;20264;-44
2022/03/03 10:37:06;;;;;;;3.77;3.33;;;15.20;48.90;15.90;101024.00;;;;5031987;28;20181;-45
2022/03/03 10:39:48;;;;;;;3.77;3.47;;;15.20;49.00;16.00;101017.00;;;;5031846;28;20218;-44
2022/03/03 10:42:16;;;;;;;3.70;3.40;;;15.20;49.00;16.00;101017.00;;;;5030961;28;20203;-44
2022/03/03 10:44:41;;;;;;;4.10;3.70;;;15.30;49.10;16.00;101010.00;;;;5036555;28;20199;-45
2022/03/03 10:47:11;;;;;;;3.60;3.30;;;15.30;49.00;16.00;101011.00;;;;5030958;28;20694;-44